Bothnia — PBLG — position and weather

sailwx.info

Track history (hours):
 
Tides and Currents Weather Stations Pressure Air Temp Water Temp Dewpoint Dewpoint Depression Visibility Wind Speed Wind Dir Waves Ship Positions

Bothnia

Last reported at 2018-Apr-24 22:22 UTC. Time now 2018-Apr-24 22:39 UTC.
Position N 55°27' E 012°12'.

Length 82 m; draft 5.4 m.

Type: Cargo ship. MMSI: 244741000.

Date/timePositionNaut miles runAvg speedWind from/ knotsBaromVisibWave heightAir tempDewpointWater temp
2018-Apr-24 22:22N 55°27' E 012°12'0 0.0
2018-Apr-24 21:55N 55°27' E 012°12'0 0.0
2018-Apr-24 21:19N 55°27' E 012°12'0 0.0
2018-Apr-24 20:58N 55°27' E 012°12'0 0.0
2018-Apr-24 20:28N 55°27' E 012°12'0 0.0
2018-Apr-24 19:58N 55°27' E 012°12'0 0.0
2018-Apr-24 19:28N 55°27' E 012°12'0 0.0
2018-Apr-24 18:58N 55°27' E 012°12'0 0.0
2018-Apr-24 18:25N 55°27' E 012°12'0 0.0
2018-Apr-24 17:58N 55°27' E 012°12'0 0.0
2018-Apr-24 17:22N 55°27' E 012°12'0 0.0
2018-Apr-24 16:58N 55°27' E 012°12'0 0.0
2018-Apr-24 16:31N 55°27' E 012°12'0 0.0
2018-Apr-24 16:01N 55°27' E 012°12'0 0.0
2018-Apr-24 15:30N 55°27' E 012°12'0 0.0
2018-Apr-24 15:00N 55°27' E 012°12'0 0.0
2018-Apr-24 14:27N 55°27' E 012°12'0 0.0
2018-Apr-24 14:00N 55°27' E 012°12'0 0.0
2018-Apr-24 13:27N 55°27' E 012°12'0 0.0
2018-Apr-24 13:00N 55°27' E 012°12'0 0.0
2018-Apr-24 12:30N 55°27' E 012°12'0 0.0
2018-Apr-24 11:57N 55°27' E 012°12'0 0.0
2018-Apr-24 11:30N 55°27' E 012°12'0 0.0
2018-Apr-24 11:00N 55°27' E 012°12'0 0.0
2018-Apr-24 10:30N 55°27' E 012°12'0 0.0
2018-Apr-24 10:00N 55°27' E 012°12'0 0.0
2018-Apr-24 09:30N 55°27' E 012°12'0 0.0
2018-Apr-24 09:00N 55°27' E 012°12'0 0.0
2018-Apr-24 07:57N 55°27' E 012°12'0 0.0
2018-Apr-24 07:27N 55°27' E 012°12'0 0.0
2018-Apr-24 07:00N 55°27' E 012°12'0 0.0
2018-Apr-24 06:27N 55°27' E 012°12'0 0.0
2018-Apr-24 05:57N 55°27' E 012°12'0 0.0
2018-Apr-24 05:30N 55°27' E 012°12'0 0.0
2018-Apr-24 05:00N 55°27' E 012°12'0 0.0
2018-Apr-24 04:27N 55°27' E 012°12'0 0.0
2018-Apr-24 03:57N 55°27' E 012°12'0 0.0
2018-Apr-24 03:30N 55°27' E 012°12'0 0.0
2018-Apr-24 02:42N 55°27' E 012°12'0 0.0
2018-Apr-24 02:24N 55°27' E 012°12'0 0.0
2018-Apr-24 02:00N 55°27' E 012°12'0 0.0
2018-Apr-24 01:27N 55°27' E 012°12'0 0.0
2018-Apr-24 01:00N 55°27' E 012°12'0 0.0
2018-Apr-24 00:30N 55°27' E 012°12'0 0.0
2018-Apr-24 00:00N 55°27' E 012°12'0 0.0
2018-Apr-23 23:27N 55°27' E 012°12'0 0.0
2018-Apr-23 23:00N 55°27' E 012°12'0 0.0
2018-Apr-23 22:30N 55°27' E 012°12'0 0.0
2018-Apr-23 22:00N 55°27' E 012°12'0 0.0
2018-Apr-23 21:27N 55°27' E 012°12'0 0.0
2018-Apr-23 20:57N 55°27' E 012°12'0 0.0
2018-Apr-23 20:30N 55°27' E 012°12'0 0.0
2018-Apr-23 19:54N 55°27' E 012°12'0 0.0
2018-Apr-23 19:30N 55°27' E 012°12'0 0.0
2018-Apr-23 18:57N 55°27' E 012°12'0 0.0
2018-Apr-23 18:30N 55°27' E 012°12'0 0.0
2018-Apr-23 18:00N 55°27' E 012°12'0 0.0
2018-Apr-23 17:30N 55°27' E 012°12'0 0.0
2018-Apr-23 17:00N 55°27' E 012°12'0 0.0
2018-Apr-23 16:27N 55°27' E 012°12'0 0.0
2018-Apr-23 15:57N 55°27' E 012°12'0 0.0
2018-Apr-23 15:30N 55°27' E 012°12'2 4.9
2018-Apr-23 15:00N 55°27' E 012°16'5 9.3
2018-Apr-23 14:30N 55°25' E 012°24'5 9.4
2018-Apr-23 14:00N 55°22' E 012°30'510.2
2018-Apr-23 13:30N 55°17' E 012°31'610.3
2018-Apr-23 12:55N 55°11' E 012°33'36 9.8
2018-Apr-23 09:14N 54°35' E 012°20'310.2
2018-Apr-23 08:59N 54°33' E 012°18'510.2
2018-Apr-23 08:30N 54°29' E 012°14'12 9.5
2018-Apr-23 07:14N 54°25' E 011°55'510.8
2018-Apr-23 06:47N 54°25' E 011°47'310.8
2018-Apr-23 06:30N 54°26' E 011°42'510.8
2018-Apr-23 06:00N 54°28' E 011°33'510.7
2018-Apr-23 05:30N 54°31' E 011°25'510.3
2018-Apr-23 05:00N 54°33' E 011°17'5 9.8
2018-Apr-23 04:30N 54°35' E 011°09'5 9.7
2018-Apr-23 04:00N 54°34' E 011°01'510.3
2018-Apr-23 03:30N 54°34' E 010°52'510.9
2018-Apr-23 03:00N 54°34' E 010°42'510.8
2018-Apr-23 02:30N 54°32' E 010°33'810.7
2018-Apr-23 01:44N 54°29' E 010°20'210.2
2018-Apr-23 01:30N 54°28' E 010°17'18 5.3
2018-Apr-22 22:07N 54°22' E 009°48'1 8.6
2018-Apr-22 22:00N 54°21' E 009°46'4 8.3
2018-Apr-22 21:30N 54°18' E 009°42'4 7.6
2018-Apr-22 21:00N 54°15' E 009°37'4 7.2
2018-Apr-22 20:30N 54°12' E 009°34'4 8.3
2018-Apr-22 20:00N 54°11' E 009°28'4 7.5
2018-Apr-22 19:30N 54°09' E 009°22'1 2.2
2018-Apr-22 18:58N 54°08' E 009°20'4 7.7
2018-Apr-22 18:30N 54°05' E 009°19'2 4.9
2018-Apr-22 18:01N 54°02' E 009°18'3 5.3
2018-Apr-22 17:30N 53°60' E 009°17'4 7.6
2018-Apr-22 17:00N 53°57' E 009°14'1 1.9
2018-Apr-22 16:30N 53°56' E 009°13'3 5.9
2018-Apr-22 16:00N 53°54' E 009°09'0 0.7
2018-Apr-22 15:30N 53°54' E 009°09'1 1.9
2018-Apr-22 15:00N 53°53' E 009°07'1 1.3
2018-Apr-22 14:30N 53°53' E 009°06'0 0.4
2018-Apr-22 14:00N 53°53' E 009°06'3 6.3
2018-Apr-22 13:30N 53°52' E 009°01'510.4
2018-Apr-22 13:00N 53°50' E 008°53'5 9.8
2018-Apr-22 12:30N 53°51' E 008°45'5 9.6
2018-Apr-22 11:59N 53°55' E 008°40'11 8.4
2018-Apr-22 10:38N 53°59' E 008°22'1 8.0
2018-Apr-22 10:30N 53°59' E 008°20'910.3
2018-Apr-22 09:36N 53°58' E 008°04'110.8
2018-Apr-22 09:30N 53°58' E 008°02'510.2
2018-Apr-22 09:00N 53°57' E 007°54'11 9.2
2018-Apr-22 07:48N 53°54' E 007°36'3 8.9
2018-Apr-22 07:29N 53°54' E 007°31'4 8.8
2018-Apr-22 07:00N 53°53' E 007°24'4 8.7
2018-Apr-22 06:30N 53°52' E 007°17'4 8.6
2018-Apr-22 06:00N 53°51' E 007°10'5 8.7
2018-Apr-22 05:28N 53°50' E 007°02'14 9.0
2018-Apr-22 03:54N 53°46' E 006°39'4710.2
2018-Apr-21 23:19N 53°33' E 005°23'310.8
2018-Apr-21 23:00N 53°32' E 005°18'610.9
2018-Apr-21 22:25N 53°30' E 005°08'511.2
2018-Apr-21 22:00N 53°29' E 005°00'611.2
2018-Apr-21 21:29N 53°27' E 004°51'611.2
2018-Apr-21 20:56N 53°23' E 004°43'511.7
2018-Apr-21 20:29N 53°18' E 004°39'611.9
2018-Apr-21 20:00N 53°13' E 004°34'612.0
2018-Apr-21 19:30N 53°08' E 004°30'611.5
2018-Apr-21 19:00N 53°03' E 004°25'611.3
2018-Apr-21 18:29N 52°58' E 004°20'511.3
2018-Apr-21 18:00N 52°53' E 004°15'3410.1
2018-Apr-21 14:40N 52°28' E 003°38'2 9.9
2018-Apr-21 14:30N 52°26' E 003°37'5 9.9
2018-Apr-21 13:59N 52°23' E 003°31'5 9.7
2018-Apr-21 13:29N 52°19' E 003°26'5 9.5
2018-Apr-21 12:59N 52°16' E 003°20'4 9.2
2018-Apr-21 12:30N 52°12' E 003°15'4 8.6
2018-Apr-21 12:00N 52°09' E 003°11'4 8.6
2018-Apr-21 11:30N 52°06' E 003°06'4 8.7
2018-Apr-21 11:00N 52°03' E 003°02'5 9.2
2018-Apr-21 10:30N 51°59' E 002°57'5 9.3
2018-Apr-21 10:00N 51°56' E 002°52'5 9.6
2018-Apr-21 09:30N 51°52' E 002°47'5 9.9
2018-Apr-21 09:00N 51°48' E 002°41'510.2
2018-Apr-21 08:30N 51°44' E 002°36'510.5
2018-Apr-21 08:00N 51°40' E 002°31'610.9
2018-Apr-21 07:29N 51°36' E 002°25'611.1
2018-Apr-21 07:00N 51°31' E 002°20'511.0
2018-Apr-21 06:30N 51°27' E 002°14'611.8
2018-Apr-21 06:00N 51°22' E 002°10'612.0
2018-Apr-21 05:30N 51°17' E 002°06'612.2
2018-Apr-21 05:00N 51°12' E 001°59'612.6
2018-Apr-21 04:30N 51°08' E 001°51'713.0
2018-Apr-21 04:00N 51°04' E 001°44'713.6
2018-Apr-21 03:30N 50°59' E 001°36'713.9
2018-Apr-21 03:00N 50°53' E 001°29'713.1
2018-Apr-21 02:30N 50°48' E 001°24'612.1
2018-Apr-21 01:58N 50°42' E 001°19'612.0
2018-Apr-21 01:30N 50°39' E 001°12'611.9
2018-Apr-21 00:59N 50°35' E 001°04'611.9
2018-Apr-21 00:30N 50°32' E 000°56'1512.3
2018-Apr-20 23:15N 50°27' E 000°33'312.5
2018-Apr-20 23:00N 50°26' E 000°29'612.2
2018-Apr-20 22:30N 50°25' E 000°19'612.0
2018-Apr-20 22:00N 50°23' E 000°11'611.4
2018-Apr-20 21:30N 50°21' E 000°02'510.9
2018-Apr-20 21:00N 50°20' W 000°06'510.4
2018-Apr-20 20:30N 50°18' W 000°14'510.0
2018-Apr-20 20:00N 50°17' W 000°22'5 9.6
2018-Apr-20 19:30N 50°16' W 000°29'5 9.2
2018-Apr-20 19:00N 50°14' W 000°36'4 8.7
2018-Apr-20 18:30N 50°13' W 000°42'4 8.3
2018-Apr-20 18:00N 50°12' W 000°49'4 8.0
2018-Apr-20 17:30N 50°11' W 000°55'4 7.7
2018-Apr-20 17:00N 50°10' W 001°00'4 7.6
2018-Apr-20 16:30N 50°09' W 001°06'4 7.8
2018-Apr-20 16:00N 50°08' W 001°12'4 8.4
2018-Apr-20 15:30N 50°07' W 001°18'4 8.8
2018-Apr-20 15:00N 50°05' W 001°25'5 9.5
2018-Apr-20 14:30N 50°04' W 001°32'510.3
2018-Apr-20 14:00N 50°02' W 001°39'611.1
2018-Apr-20 13:30N 50°01' W 001°48'612.0
2018-Apr-20 13:00N 49°59' W 001°57'1112.8
2018-Apr-20 12:10N 49°56' W 002°13'313.3
2018-Apr-20 11:59N 49°55' W 002°16'613.3
2018-Apr-20 11:30N 49°53' W 002°26'713.1
2018-Apr-20 10:58N 49°51' W 002°36'612.9
2018-Apr-20 10:30N 49°50' W 002°45'612.6
2018-Apr-20 10:00N 49°47' W 002°54'612.5
2018-Apr-20 09:30N 49°44' W 003°03'612.2
2018-Apr-20 09:00N 49°41' W 003°10'612.1
2018-Apr-20 08:30N 49°38' W 003°18'612.1
2018-Apr-20 08:00N 49°35' W 003°26'612.0
2018-Apr-20 07:29N 49°32' W 003°35'612.0
2018-Apr-20 06:59N 49°29' W 003°43'611.9
2018-Apr-20 06:29N 49°26' W 003°51'611.6
2018-Apr-20 05:59N 49°23' W 003°58'1311.2
2018-Apr-20 04:50N 49°16' W 004°15'411.0
2018-Apr-20 04:30N 49°15' W 004°20'510.7
2018-Apr-20 04:00N 49°12' W 004°28'810.3
2018-Apr-20 03:14N 49°08' W 004°38'2 9.8
2018-Apr-20 03:00N 49°07' W 004°41'5 9.6
2018-Apr-20 02:27N 49°04' W 004°48'5 9.2
2018-Apr-20 01:56N 49°02' W 004°55'  
2018-Apr-15 02:19N 45°36' W 002°45'18 5.9
2018-Apr-14 23:17N 45°46' W 002°23'2 5.8
2018-Apr-14 23:00N 45°47' W 002°22'3 5.7
2018-Apr-14 22:30N 45°49' W 002°18'  
Track history (hours):
 
Tides and Currents Weather Stations Pressure Air Temp Water Temp Dewpoint Dewpoint Depression Visibility Wind Speed Wind Dir Waves Ship Positions

Bothnia

Last reported at 2018-Apr-24 22:22 UTC. Time now 2018-Apr-24 22:39 UTC.
Position N 55°27' E 012°12'.

Length 82 m; draft 5.4 m.

Type: Cargo ship. MMSI: 244741000.

Date/timePositionNaut miles runAvg speedWind from/ knotsBaromVisibWave heightAir tempDewpointWater temp
2018-Apr-24 22:22N 55°27' E 012°12'0 0.0
2018-Apr-24 21:55N 55°27' E 012°12'0 0.0
2018-Apr-24 21:19N 55°27' E 012°12'0 0.0
2018-Apr-24 20:58N 55°27' E 012°12'0 0.0
2018-Apr-24 20:28N 55°27' E 012°12'0 0.0
2018-Apr-24 19:58N 55°27' E 012°12'0 0.0
2018-Apr-24 19:28N 55°27' E 012°12'0 0.0
2018-Apr-24 18:58N 55°27' E 012°12'0 0.0
2018-Apr-24 18:25N 55°27' E 012°12'0 0.0
2018-Apr-24 17:58N 55°27' E 012°12'0 0.0
2018-Apr-24 17:22N 55°27' E 012°12'0 0.0
2018-Apr-24 16:58N 55°27' E 012°12'0 0.0
2018-Apr-24 16:31N 55°27' E 012°12'0 0.0
2018-Apr-24 16:01N 55°27' E 012°12'0 0.0
2018-Apr-24 15:30N 55°27' E 012°12'0 0.0
2018-Apr-24 15:00N 55°27' E 012°12'0 0.0
2018-Apr-24 14:27N 55°27' E 012°12'0 0.0
2018-Apr-24 14:00N 55°27' E 012°12'0 0.0
2018-Apr-24 13:27N 55°27' E 012°12'0 0.0
2018-Apr-24 13:00N 55°27' E 012°12'0 0.0
2018-Apr-24 12:30N 55°27' E 012°12'0 0.0
2018-Apr-24 11:57N 55°27' E 012°12'0 0.0
2018-Apr-24 11:30N 55°27' E 012°12'0 0.0
2018-Apr-24 11:00N 55°27' E 012°12'0 0.0
2018-Apr-24 10:30N 55°27' E 012°12'0 0.0
2018-Apr-24 10:00N 55°27' E 012°12'0 0.0
2018-Apr-24 09:30N 55°27' E 012°12'0 0.0
2018-Apr-24 09:00N 55°27' E 012°12'0 0.0
2018-Apr-24 07:57N 55°27' E 012°12'0 0.0
2018-Apr-24 07:27N 55°27' E 012°12'0 0.0
2018-Apr-24 07:00N 55°27' E 012°12'0 0.0
2018-Apr-24 06:27N 55°27' E 012°12'0 0.0
2018-Apr-24 05:57N 55°27' E 012°12'0 0.0
2018-Apr-24 05:30N 55°27' E 012°12'0 0.0
2018-Apr-24 05:00N 55°27' E 012°12'0 0.0
2018-Apr-24 04:27N 55°27' E 012°12'0 0.0
2018-Apr-24 03:57N 55°27' E 012°12'0 0.0
2018-Apr-24 03:30N 55°27' E 012°12'0 0.0
2018-Apr-24 02:42N 55°27' E 012°12'0 0.0
2018-Apr-24 02:24N 55°27' E 012°12'0 0.0
2018-Apr-24 02:00N 55°27' E 012°12'0 0.0
2018-Apr-24 01:27N 55°27' E 012°12'0 0.0
2018-Apr-24 01:00N 55°27' E 012°12'0 0.0
2018-Apr-24 00:30N 55°27' E 012°12'0 0.0
2018-Apr-24 00:00N 55°27' E 012°12'0 0.0
2018-Apr-23 23:27N 55°27' E 012°12'0 0.0
2018-Apr-23 23:00N 55°27' E 012°12'0 0.0
2018-Apr-23 22:30N 55°27' E 012°12'0 0.0
2018-Apr-23 22:00N 55°27' E 012°12'0 0.0
2018-Apr-23 21:27N 55°27' E 012°12'0 0.0
2018-Apr-23 20:57N 55°27' E 012°12'0 0.0
2018-Apr-23 20:30N 55°27' E 012°12'0 0.0
2018-Apr-23 19:54N 55°27' E 012°12'0 0.0
2018-Apr-23 19:30N 55°27' E 012°12'0 0.0
2018-Apr-23 18:57N 55°27' E 012°12'0 0.0
2018-Apr-23 18:30N 55°27' E 012°12'0 0.0
2018-Apr-23 18:00N 55°27' E 012°12'0 0.0
2018-Apr-23 17:30N 55°27' E 012°12'0 0.0
2018-Apr-23 17:00N 55°27' E 012°12'0 0.0
2018-Apr-23 16:27N 55°27' E 012°12'0 0.0
2018-Apr-23 15:57N 55°27' E 012°12'0 0.0
2018-Apr-23 15:30N 55°27' E 012°12'2 4.9
2018-Apr-23 15:00N 55°27' E 012°16'5 9.3
2018-Apr-23 14:30N 55°25' E 012°24'5 9.4
2018-Apr-23 14:00N 55°22' E 012°30'510.2
2018-Apr-23 13:30N 55°17' E 012°31'610.3
2018-Apr-23 12:55N 55°11' E 012°33'36 9.8
2018-Apr-23 09:14N 54°35' E 012°20'310.2
2018-Apr-23 08:59N 54°33' E 012°18'510.2
2018-Apr-23 08:30N 54°29' E 012°14'12 9.5
2018-Apr-23 07:14N 54°25' E 011°55'510.8
2018-Apr-23 06:47N 54°25' E 011°47'310.8
2018-Apr-23 06:30N 54°26' E 011°42'510.8
2018-Apr-23 06:00N 54°28' E 011°33'510.7
2018-Apr-23 05:30N 54°31' E 011°25'510.3
2018-Apr-23 05:00N 54°33' E 011°17'5 9.8
2018-Apr-23 04:30N 54°35' E 011°09'5 9.7
2018-Apr-23 04:00N 54°34' E 011°01'510.3
2018-Apr-23 03:30N 54°34' E 010°52'510.9
2018-Apr-23 03:00N 54°34' E 010°42'510.8
2018-Apr-23 02:30N 54°32' E 010°33'810.7
2018-Apr-23 01:44N 54°29' E 010°20'210.2
2018-Apr-23 01:30N 54°28' E 010°17'18 5.3
2018-Apr-22 22:07N 54°22' E 009°48'1 8.6
2018-Apr-22 22:00N 54°21' E 009°46'4 8.3
2018-Apr-22 21:30N 54°18' E 009°42'4 7.6
2018-Apr-22 21:00N 54°15' E 009°37'4 7.2
2018-Apr-22 20:30N 54°12' E 009°34'4 8.3
2018-Apr-22 20:00N 54°11' E 009°28'4 7.5
2018-Apr-22 19:30N 54°09' E 009°22'1 2.2
2018-Apr-22 18:58N 54°08' E 009°20'4 7.7
2018-Apr-22 18:30N 54°05' E 009°19'2 4.9
2018-Apr-22 18:01N 54°02' E 009°18'3 5.3
2018-Apr-22 17:30N 53°60' E 009°17'4 7.6
2018-Apr-22 17:00N 53°57' E 009°14'1 1.9
2018-Apr-22 16:30N 53°56' E 009°13'3 5.9
2018-Apr-22 16:00N 53°54' E 009°09'0 0.7
2018-Apr-22 15:30N 53°54' E 009°09'1 1.9
2018-Apr-22 15:00N 53°53' E 009°07'1 1.3
2018-Apr-22 14:30N 53°53' E 009°06'0 0.4
2018-Apr-22 14:00N 53°53' E 009°06'3 6.3
2018-Apr-22 13:30N 53°52' E 009°01'510.4
2018-Apr-22 13:00N 53°50' E 008°53'5 9.8
2018-Apr-22 12:30N 53°51' E 008°45'5 9.6
2018-Apr-22 11:59N 53°55' E 008°40'11 8.4
2018-Apr-22 10:38N 53°59' E 008°22'1 8.0
2018-Apr-22 10:30N 53°59' E 008°20'910.3
2018-Apr-22 09:36N 53°58' E 008°04'110.8
2018-Apr-22 09:30N 53°58' E 008°02'510.2
2018-Apr-22 09:00N 53°57' E 007°54'11 9.2
2018-Apr-22 07:48N 53°54' E 007°36'3 8.9
2018-Apr-22 07:29N 53°54' E 007°31'4 8.8
2018-Apr-22 07:00N 53°53' E 007°24'4 8.7
2018-Apr-22 06:30N 53°52' E 007°17'4 8.6
2018-Apr-22 06:00N 53°51' E 007°10'5 8.7
2018-Apr-22 05:28N 53°50' E 007°02'14 9.0
2018-Apr-22 03:54N 53°46' E 006°39'4710.2
2018-Apr-21 23:19N 53°33' E 005°23'310.8
2018-Apr-21 23:00N 53°32' E 005°18'610.9
2018-Apr-21 22:25N 53°30' E 005°08'511.2
2018-Apr-21 22:00N 53°29' E 005°00'611.2
2018-Apr-21 21:29N 53°27' E 004°51'611.2
2018-Apr-21 20:56N 53°23' E 004°43'511.7
2018-Apr-21 20:29N 53°18' E 004°39'611.9
2018-Apr-21 20:00N 53°13' E 004°34'612.0
2018-Apr-21 19:30N 53°08' E 004°30'611.5
2018-Apr-21 19:00N 53°03' E 004°25'611.3
2018-Apr-21 18:29N 52°58' E 004°20'511.3
2018-Apr-21 18:00N 52°53' E 004°15'3410.1
2018-Apr-21 14:40N 52°28' E 003°38'2 9.9
2018-Apr-21 14:30N 52°26' E 003°37'5 9.9
2018-Apr-21 13:59N 52°23' E 003°31'5 9.7
2018-Apr-21 13:29N 52°19' E 003°26'5 9.5
2018-Apr-21 12:59N 52°16' E 003°20'4 9.2
2018-Apr-21 12:30N 52°12' E 003°15'4 8.6
2018-Apr-21 12:00N 52°09' E 003°11'4 8.6
2018-Apr-21 11:30N 52°06' E 003°06'4 8.7
2018-Apr-21 11:00N 52°03' E 003°02'5 9.2
2018-Apr-21 10:30N 51°59' E 002°57'5 9.3
2018-Apr-21 10:00N 51°56' E 002°52'5 9.6
2018-Apr-21 09:30N 51°52' E 002°47'5 9.9
2018-Apr-21 09:00N 51°48' E 002°41'510.2
2018-Apr-21 08:30N 51°44' E 002°36'510.5
2018-Apr-21 08:00N 51°40' E 002°31'610.9
2018-Apr-21 07:29N 51°36' E 002°25'611.1
2018-Apr-21 07:00N 51°31' E 002°20'511.0
2018-Apr-21 06:30N 51°27' E 002°14'611.8
2018-Apr-21 06:00N 51°22' E 002°10'612.0
2018-Apr-21 05:30N 51°17' E 002°06'612.2
2018-Apr-21 05:00N 51°12' E 001°59'612.6
2018-Apr-21 04:30N 51°08' E 001°51'713.0
2018-Apr-21 04:00N 51°04' E 001°44'713.6
2018-Apr-21 03:30N 50°59' E 001°36'713.9
2018-Apr-21 03:00N 50°53' E 001°29'713.1
2018-Apr-21 02:30N 50°48' E 001°24'612.1
2018-Apr-21 01:58N 50°42' E 001°19'612.0
2018-Apr-21 01:30N 50°39' E 001°12'611.9
2018-Apr-21 00:59N 50°35' E 001°04'611.9
2018-Apr-21 00:30N 50°32' E 000°56'1512.3
2018-Apr-20 23:15N 50°27' E 000°33'312.5
2018-Apr-20 23:00N 50°26' E 000°29'612.2
2018-Apr-20 22:30N 50°25' E 000°19'612.0
2018-Apr-20 22:00N 50°23' E 000°11'611.4
2018-Apr-20 21:30N 50°21' E 000°02'510.9
2018-Apr-20 21:00N 50°20' W 000°06'510.4
2018-Apr-20 20:30N 50°18' W 000°14'510.0
2018-Apr-20 20:00N 50°17' W 000°22'5 9.6
2018-Apr-20 19:30N 50°16' W 000°29'5 9.2
2018-Apr-20 19:00N 50°14' W 000°36'4 8.7
2018-Apr-20 18:30N 50°13' W 000°42'4 8.3
2018-Apr-20 18:00N 50°12' W 000°49'4 8.0
2018-Apr-20 17:30N 50°11' W 000°55'4 7.7
2018-Apr-20 17:00N 50°10' W 001°00'4 7.6
2018-Apr-20 16:30N 50°09' W 001°06'4 7.8
2018-Apr-20 16:00N 50°08' W 001°12'4 8.4
2018-Apr-20 15:30N 50°07' W 001°18'4 8.8
2018-Apr-20 15:00N 50°05' W 001°25'5 9.5
2018-Apr-20 14:30N 50°04' W 001°32'510.3
2018-Apr-20 14:00N 50°02' W 001°39'611.1
2018-Apr-20 13:30N 50°01' W 001°48'612.0
2018-Apr-20 13:00N 49°59' W 001°57'1112.8
2018-Apr-20 12:10N 49°56' W 002°13'313.3
2018-Apr-20 11:59N 49°55' W 002°16'613.3
2018-Apr-20 11:30N 49°53' W 002°26'713.1
2018-Apr-20 10:58N 49°51' W 002°36'612.9
2018-Apr-20 10:30N 49°50' W 002°45'612.6
2018-Apr-20 10:00N 49°47' W 002°54'612.5
2018-Apr-20 09:30N 49°44' W 003°03'612.2
2018-Apr-20 09:00N 49°41' W 003°10'612.1
2018-Apr-20 08:30N 49°38' W 003°18'612.1
2018-Apr-20 08:00N 49°35' W 003°26'612.0
2018-Apr-20 07:29N 49°32' W 003°35'612.0
2018-Apr-20 06:59N 49°29' W 003°43'611.9
2018-Apr-20 06:29N 49°26' W 003°51'611.6
2018-Apr-20 05:59N 49°23' W 003°58'1311.2
2018-Apr-20 04:50N 49°16' W 004°15'411.0
2018-Apr-20 04:30N 49°15' W 004°20'510.7
2018-Apr-20 04:00N 49°12' W 004°28'810.3
2018-Apr-20 03:14N 49°08' W 004°38'2 9.8
2018-Apr-20 03:00N 49°07' W 004°41'5 9.6
2018-Apr-20 02:27N 49°04' W 004°48'5 9.2
2018-Apr-20 01:56N 49°02' W 004°55'  
2018-Apr-15 02:19N 45°36' W 002°45'18 5.9
2018-Apr-14 23:17N 45°46' W 002°23'2 5.8
2018-Apr-14 23:00N 45°47' W 002°22'3 5.7
2018-Apr-14 22:30N 45°49' W 002°18'  

Dump ship's entire track history